createdAt,value
2023-10-20T00:03:40.007Z,9.80
2023-10-20T00:13:53.486Z,9.70
2023-10-20T00:23:55.770Z,9.90
2023-10-20T00:33:57.957Z,9.90
2023-10-20T01:30:12.316Z,9.90
2023-10-20T01:40:14.745Z,9.90
2023-10-20T01:50:17.706Z,10.10
2023-10-20T02:00:23.421Z,10.20
2023-10-20T02:10:31.879Z,10.20
2023-10-20T02:20:56.431Z,10.20
2023-10-20T02:31:01.198Z,10.20
2023-10-20T02:41:06.387Z,10.10
2023-10-20T02:51:15.679Z,10.20
2023-10-20T03:01:19.150Z,10.30
2023-10-20T03:11:24.726Z,10.40
2023-10-20T03:21:35.884Z,10.40
2023-10-20T03:31:47.138Z,10.30
2023-10-20T03:41:49.705Z,10.30
2023-10-20T03:51:51.586Z,10.30
2023-10-20T04:01:53.849Z,10.30
2023-10-20T04:12:02.064Z,10.30
2023-10-20T04:22:03.949Z,10.30
2023-10-20T04:32:05.866Z,10.20
2023-10-20T04:42:07.857Z,10.30
2023-10-20T04:52:10.313Z,10.30
2023-10-20T05:02:12.235Z,10.40
2023-10-20T05:12:14.174Z,10.50
2023-10-20T05:22:16.155Z,10.50
2023-10-20T05:32:18.294Z,10.60
2023-10-20T05:42:20.592Z,10.60
2023-10-20T05:52:22.711Z,10.70
2023-10-20T06:02:26.835Z,10.80
2023-10-20T06:12:32.015Z,10.80
2023-10-20T06:22:35.975Z,10.90
2023-10-20T06:32:38.180Z,11.00
2023-10-20T06:42:40.216Z,11.30
2023-10-20T06:52:44.907Z,11.50
2023-10-20T07:02:49.730Z,11.60
2023-10-20T07:12:56.842Z,11.70
2023-10-20T07:23:01.624Z,11.90
2023-10-20T07:33:22.660Z,12.00
2023-10-20T07:43:24.740Z,12.10
2023-10-20T07:53:32.853Z,12.40
2023-10-20T08:03:45.209Z,12.50
2023-10-20T08:13:50.421Z,12.60
2023-10-20T08:23:52.478Z,13.00
2023-10-20T08:33:54.581Z,13.00
2023-10-20T08:43:57.198Z,13.10
2023-10-20T08:53:59.320Z,13.30
2023-10-20T09:04:01.400Z,13.60
2023-10-20T09:14:03.586Z,13.80
2023-10-20T09:24:07.539Z,14.10
2023-10-20T09:34:09.423Z,14.40
2023-10-20T09:44:17.453Z,14.50
2023-10-20T09:54:29.512Z,14.80
2023-10-20T10:04:38.387Z,15.10
2023-10-20T10:14:42.150Z,15.40
2023-10-20T10:24:53.408Z,15.70
2023-10-20T10:34:57.817Z,15.70
2023-10-20T10:45:00.371Z,15.70
2023-10-20T10:55:02.311Z,15.80
2023-10-20T11:05:04.491Z,15.90
2023-10-20T11:15:07.137Z,16.00
2023-10-20T11:25:18.530Z,15.90
2023-10-20T11:35:20.535Z,15.80
2023-10-20T11:45:22.439Z,15.80
2023-10-20T11:55:24.489Z,15.90
2023-10-20T12:05:26.552Z,16.00
2023-10-20T12:15:28.505Z,16.30
2023-10-20T12:25:30.667Z,16.50
2023-10-20T12:35:32.847Z,16.50
2023-10-20T12:45:37.870Z,16.60
2023-10-20T12:55:39.821Z,16.70
2023-10-20T13:05:41.754Z,16.70
2023-10-20T13:15:44.007Z,16.70
2023-10-20T13:25:45.977Z,16.90
2023-10-20T13:35:47.932Z,17.00
2023-10-20T13:45:50.133Z,17.10
2023-10-20T13:55:52.357Z,17.30
2023-10-20T14:05:55.238Z,17.40
2023-10-20T14:15:57.193Z,17.40
2023-10-20T14:25:59.721Z,17.50
2023-10-20T14:36:02.817Z,17.50
2023-10-20T14:46:06.404Z,17.50
2023-10-20T14:56:15.847Z,17.50
2023-10-20T15:06:17.772Z,17.50
2023-10-20T15:16:19.743Z,17.40
2023-10-20T15:26:21.768Z,17.10
2023-10-20T15:36:23.609Z,16.90
2023-10-20T15:46:25.572Z,16.80
2023-10-20T15:56:27.495Z,16.70
2023-10-20T16:06:29.424Z,16.60
2023-10-20T16:16:31.371Z,16.50
2023-10-20T16:26:33.175Z,16.50
2023-10-20T16:36:35.106Z,16.60
2023-10-20T16:46:37.613Z,16.50
2023-10-20T16:56:40.386Z,16.50
2023-10-20T17:06:42.285Z,16.70
2023-10-20T17:16:45.473Z,16.90
2023-10-20T17:26:57.168Z,17.10
2023-10-20T17:37:19.992Z,17.30
2023-10-20T17:47:44.594Z,17.10
2023-10-20T17:58:05.607Z,16.80
2023-10-20T18:08:09.332Z,16.60
2023-10-20T18:18:23.942Z,16.70
2023-10-20T18:40:39.330Z,16.90
2023-10-20T19:48:45.702Z,16.60
2023-10-20T19:58:51.852Z,16.70
2023-10-20T20:08:55.505Z,17.00
2023-10-20T20:30:42.534Z,17.30
2023-10-20T21:02:33.798Z,18.50
2023-10-20T21:12:35.889Z,18.80
2023-10-20T21:33:41.922Z,19.20
2023-10-20T21:43:45.430Z,19.10
2023-10-20T21:53:47.290Z,19.20
2023-10-20T22:03:49.328Z,19.00
2023-10-20T22:13:51.392Z,18.90
2023-10-20T22:23:53.593Z,18.70
2023-10-20T22:33:55.730Z,19.20
2023-10-20T22:43:57.665Z,19.30
2023-10-20T22:53:59.650Z,19.40
2023-10-20T23:04:01.700Z,19.80
2023-10-20T23:14:04.053Z,19.60
2023-10-20T23:24:06.471Z,19.50
2023-10-20T23:34:20.622Z,19.40
2023-10-20T23:44:22.795Z,19.30
2023-10-20T23:54:26.629Z,19.30
